sensor_id;sensor_type;location;lat;lon;timestamp;temperature;humidity
68215;DHT22;55036;52.138;5.236;2023-02-07T00:00:52;2.60;85.50
68215;DHT22;55036;52.138;5.236;2023-02-07T00:03:18;2.60;85.30
68215;DHT22;55036;52.138;5.236;2023-02-07T00:05:45;2.60;85.00
68215;DHT22;55036;52.138;5.236;2023-02-07T00:08:12;2.60;84.90
68215;DHT22;55036;52.138;5.236;2023-02-07T00:10:40;2.60;84.50
68215;DHT22;55036;52.138;5.236;2023-02-07T00:13:07;2.60;84.50
68215;DHT22;55036;52.138;5.236;2023-02-07T00:15:34;2.50;84.30
68215;DHT22;55036;52.138;5.236;2023-02-07T00:18:01;2.50;84.30
68215;DHT22;55036;52.138;5.236;2023-02-07T00:20:28;2.50;85.00
68215;DHT22;55036;52.138;5.236;2023-02-07T00:22:54;2.50;85.30
68215;DHT22;55036;52.138;5.236;2023-02-07T00:25:21;2.60;85.10
68215;DHT22;55036;52.138;5.236;2023-02-07T00:27:48;2.50;84.80
68215;DHT22;55036;52.138;5.236;2023-02-07T00:30:16;2.50;84.80
68215;DHT22;55036;52.138;5.236;2023-02-07T00:32:43;2.50;84.70
68215;DHT22;55036;52.138;5.236;2023-02-07T00:35:10;2.50;85.00
68215;DHT22;55036;52.138;5.236;2023-02-07T00:37:36;2.50;84.80
68215;DHT22;55036;52.138;5.236;2023-02-07T00:40:03;2.50;84.90
68215;DHT22;55036;52.138;5.236;2023-02-07T00:42:30;2.50;84.80
68215;DHT22;55036;52.138;5.236;2023-02-07T00:44:57;2.40;84.40
68215;DHT22;55036;52.138;5.236;2023-02-07T00:47:24;2.40;84.90
68215;DHT22;55036;52.138;5.236;2023-02-07T00:49:50;2.40;85.30
68215;DHT22;55036;52.138;5.236;2023-02-07T00:52:17;2.40;85.50
68215;DHT22;55036;52.138;5.236;2023-02-07T00:54:44;2.40;84.80
68215;DHT22;55036;52.138;5.236;2023-02-07T00:57:10;2.30;84.60
68215;DHT22;55036;52.138;5.236;2023-02-07T00:59:37;2.30;85.10
68215;DHT22;55036;52.138;5.236;2023-02-07T01:02:04;2.30;85.30
68215;DHT22;55036;52.138;5.236;2023-02-07T01:04:30;2.30;84.80
68215;DHT22;55036;52.138;5.236;2023-02-07T01:06:57;2.30;85.00
68215;DHT22;55036;52.138;5.236;2023-02-07T01:09:24;2.30;85.10
68215;DHT22;55036;52.138;5.236;2023-02-07T01:11:50;2.30;85.00
68215;DHT22;55036;52.138;5.236;2023-02-07T01:14:17;2.30;85.40
68215;DHT22;55036;52.138;5.236;2023-02-07T01:16:44;2.30;85.70
68215;DHT22;55036;52.138;5.236;2023-02-07T01:19:11;2.30;85.80
68215;DHT22;55036;52.138;5.236;2023-02-07T01:21:39;2.30;85.10
68215;DHT22;55036;52.138;5.236;2023-02-07T01:24:06;2.20;84.80
68215;DHT22;55036;52.138;5.236;2023-02-07T01:26:34;2.20;84.90
68215;DHT22;55036;52.138;5.236;2023-02-07T01:29:01;2.20;85.20
68215;DHT22;55036;52.138;5.236;2023-02-07T01:31:28;2.20;85.60
68215;DHT22;55036;52.138;5.236;2023-02-07T01:33:57;2.20;86.00
68215;DHT22;55036;52.138;5.236;2023-02-07T01:36:26;2.20;85.80
68215;DHT22;55036;52.138;5.236;2023-02-07T01:38:53;2.10;84.80
68215;DHT22;55036;52.138;5.236;2023-02-07T01:41:21;2.00;85.30
68215;DHT22;55036;52.138;5.236;2023-02-07T01:46:48;2.00;85.40
68215;DHT22;55036;52.138;5.236;2023-02-07T01:49:22;2.00;85.50
68215;DHT22;55036;52.138;5.236;2023-02-07T01:51:54;2.10;85.70
68215;DHT22;55036;52.138;5.236;2023-02-07T01:54:22;2.10;85.80
68215;DHT22;55036;52.138;5.236;2023-02-07T01:56:55;2.10;85.90
68215;DHT22;55036;52.138;5.236;2023-02-07T01:59:24;2.10;86.00
68215;DHT22;55036;52.138;5.236;2023-02-07T02:01:51;2.10;85.90
68215;DHT22;55036;52.138;5.236;2023-02-07T02:04:17;2.10;85.40
68215;DHT22;55036;52.138;5.236;2023-02-07T02:06:44;2.00;85.10
68215;DHT22;55036;52.138;5.236;2023-02-07T02:09:14;2.00;85.50
68215;DHT22;55036;52.138;5.236;2023-02-07T02:22:54;1.90;85.90
68215;DHT22;55036;52.138;5.236;2023-02-07T02:34:10;1.90;85.40
68215;DHT22;55036;52.138;5.236;2023-02-07T02:36:47;1.70;85.40
68215;DHT22;55036;52.138;5.236;2023-02-07T02:39:44;1.70;85.20
68215;DHT22;55036;52.138;5.236;2023-02-07T02:42:26;1.70;85.20
68215;DHT22;55036;52.138;5.236;2023-02-07T02:44:58;1.80;85.60
68215;DHT22;55036;52.138;5.236;2023-02-07T02:47:28;1.80;86.00
68215;DHT22;55036;52.138;5.236;2023-02-07T02:49:56;1.80;86.20
68215;DHT22;55036;52.138;5.236;2023-02-07T02:52:23;1.80;85.80
68215;DHT22;55036;52.138;5.236;2023-02-07T02:55:10;1.80;85.40
68215;DHT22;55036;52.138;5.236;2023-02-07T02:57:50;1.70;85.10
68215;DHT22;55036;52.138;5.236;2023-02-07T03:03:50;1.70;86.60
68215;DHT22;55036;52.138;5.236;2023-02-07T03:12:16;1.70;85.10
68215;DHT22;55036;52.138;5.236;2023-02-07T03:14:57;1.60;85.60
68215;DHT22;55036;52.138;5.236;2023-02-07T03:18:17;1.60;85.60
68215;DHT22;55036;52.138;5.236;2023-02-07T03:20:28;1.60;85.30
68215;DHT22;55036;52.138;5.236;2023-02-07T03:22:59;1.60;85.10
68215;DHT22;55036;52.138;5.236;2023-02-07T03:25:28;1.60;85.70
68215;DHT22;55036;52.138;5.236;2023-02-07T03:27:56;1.60;85.90
68215;DHT22;55036;52.138;5.236;2023-02-07T03:30:26;1.60;85.70
68215;DHT22;55036;52.138;5.236;2023-02-07T03:32:56;1.50;86.30
68215;DHT22;55036;52.138;5.236;2023-02-07T03:35:40;1.50;85.20
68215;DHT22;55036;52.138;5.236;2023-02-07T03:38:08;1.40;84.80
68215;DHT22;55036;52.138;5.236;2023-02-07T03:40:44;1.40;85.00
68215;DHT22;55036;52.138;5.236;2023-02-07T03:43:32;1.40;85.20
68215;DHT22;55036;52.138;5.236;2023-02-07T03:46:00;1.30;84.90
68215;DHT22;55036;52.138;5.236;2023-02-07T03:48:27;1.30;84.90
68215;DHT22;55036;52.138;5.236;2023-02-07T03:50:53;1.30;85.40
68215;DHT22;55036;52.138;5.236;2023-02-07T03:53:20;1.40;85.60
68215;DHT22;55036;52.138;5.236;2023-02-07T03:55:47;1.30;85.20
68215;DHT22;55036;52.138;5.236;2023-02-07T03:58:14;1.30;84.90
68215;DHT22;55036;52.138;5.236;2023-02-07T04:00:40;1.20;84.70
68215;DHT22;55036;52.138;5.236;2023-02-07T04:03:07;1.20;84.70
68215;DHT22;55036;52.138;5.236;2023-02-07T04:05:34;1.20;85.00
68215;DHT22;55036;52.138;5.236;2023-02-07T04:08:01;1.20;84.90
68215;DHT22;55036;52.138;5.236;2023-02-07T04:10:28;1.20;84.90
68215;DHT22;55036;52.138;5.236;2023-02-07T04:12:54;1.20;85.50
68215;DHT22;55036;52.138;5.236;2023-02-07T04:15:21;1.20;85.70
68215;DHT22;55036;52.138;5.236;2023-02-07T04:17:48;1.20;85.30
68215;DHT22;55036;52.138;5.236;2023-02-07T04:20:15;1.20;85.00
68215;DHT22;55036;52.138;5.236;2023-02-07T04:22:42;1.20;84.80
68215;DHT22;55036;52.138;5.236;2023-02-07T04:25:08;1.10;84.70
68215;DHT22;55036;52.138;5.236;2023-02-07T04:27:35;1.10;85.00
68215;DHT22;55036;52.138;5.236;2023-02-07T04:30:02;1.10;85.60
68215;DHT22;55036;52.138;5.236;2023-02-07T04:32:28;1.10;85.40
68215;DHT22;55036;52.138;5.236;2023-02-07T04:34:55;1.10;85.30
68215;DHT22;55036;52.138;5.236;2023-02-07T04:37:22;1.10;85.70
68215;DHT22;55036;52.138;5.236;2023-02-07T04:39:49;1.10;85.60
68215;DHT22;55036;52.138;5.236;2023-02-07T04:42:15;1.10;85.90
68215;DHT22;55036;52.138;5.236;2023-02-07T04:44:42;1.00;85.10
68215;DHT22;55036;52.138;5.236;2023-02-07T04:47:09;1.00;85.80
68215;DHT22;55036;52.138;5.236;2023-02-07T04:49:35;1.00;86.00
68215;DHT22;55036;52.138;5.236;2023-02-07T04:52:02;1.00;85.80
68215;DHT22;55036;52.138;5.236;2023-02-07T04:54:29;1.00;85.60
68215;DHT22;55036;52.138;5.236;2023-02-07T04:56:55;1.00;85.70
68215;DHT22;55036;52.138;5.236;2023-02-07T04:59:22;1.00;85.10
68215;DHT22;55036;52.138;5.236;2023-02-07T05:01:49;1.00;85.00
68215;DHT22;55036;52.138;5.236;2023-02-07T05:04:15;0.90;84.80
68215;DHT22;55036;52.138;5.236;2023-02-07T05:06:42;0.90;85.30
68215;DHT22;55036;52.138;5.236;2023-02-07T05:09:09;0.90;85.80
68215;DHT22;55036;52.138;5.236;2023-02-07T05:11:35;0.90;85.30
68215;DHT22;55036;52.138;5.236;2023-02-07T05:14:02;0.90;85.30
68215;DHT22;55036;52.138;5.236;2023-02-07T05:16:29;0.90;85.50
68215;DHT22;55036;52.138;5.236;2023-02-07T05:18:56;0.90;84.70
68215;DHT22;55036;52.138;5.236;2023-02-07T05:21:22;0.80;85.00
68215;DHT22;55036;52.138;5.236;2023-02-07T05:23:49;0.90;85.20
68215;DHT22;55036;52.138;5.236;2023-02-07T05:26:16;0.90;85.20
68215;DHT22;55036;52.138;5.236;2023-02-07T05:28:43;0.90;85.20
68215;DHT22;55036;52.138;5.236;2023-02-07T05:31:09;0.90;85.20
68215;DHT22;55036;52.138;5.236;2023-02-07T05:33:36;0.80;85.00
68215;DHT22;55036;52.138;5.236;2023-02-07T05:36:03;0.80;85.40
68215;DHT22;55036;52.138;5.236;2023-02-07T05:38:30;0.80;86.60
68215;DHT22;55036;52.138;5.236;2023-02-07T05:40:57;0.80;85.00
68215;DHT22;55036;52.138;5.236;2023-02-07T05:43:24;0.70;84.90
68215;DHT22;55036;52.138;5.236;2023-02-07T05:45:50;0.80;85.30
68215;DHT22;55036;52.138;5.236;2023-02-07T05:48:17;0.80;85.30
68215;DHT22;55036;52.138;5.236;2023-02-07T05:50:44;0.80;85.40
68215;DHT22;55036;52.138;5.236;2023-02-07T05:53:10;0.70;85.90
68215;DHT22;55036;52.138;5.236;2023-02-07T05:55:38;0.70;85.50
68215;DHT22;55036;52.138;5.236;2023-02-07T05:58:05;0.70;85.60
68215;DHT22;55036;52.138;5.236;2023-02-07T06:00:32;0.70;85.80
68215;DHT22;55036;52.138;5.236;2023-02-07T06:02:59;0.70;85.70
68215;DHT22;55036;52.138;5.236;2023-02-07T06:05:25;0.70;85.60
68215;DHT22;55036;52.138;5.236;2023-02-07T06:07:57;0.70;86.00
68215;DHT22;55036;52.138;5.236;2023-02-07T06:10:23;0.70;86.20
68215;DHT22;55036;52.138;5.236;2023-02-07T06:12:50;0.80;86.00
68215;DHT22;55036;52.138;5.236;2023-02-07T06:15:17;0.80;86.00
68215;DHT22;55036;52.138;5.236;2023-02-07T06:17:43;0.80;85.90
68215;DHT22;55036;52.138;5.236;2023-02-07T06:20:10;0.80;86.10
68215;DHT22;55036;52.138;5.236;2023-02-07T06:22:37;0.80;86.10
68215;DHT22;55036;52.138;5.236;2023-02-07T06:25:04;0.70;86.10
68215;DHT22;55036;52.138;5.236;2023-02-07T06:27:31;0.60;88.40
68215;DHT22;55036;52.138;5.236;2023-02-07T06:29:57;0.60;87.30
68215;DHT22;55036;52.138;5.236;2023-02-07T06:32:24;0.70;86.60
68215;DHT22;55036;52.138;5.236;2023-02-07T06:34:51;0.60;87.10
68215;DHT22;55036;52.138;5.236;2023-02-07T06:37:17;0.60;87.40
68215;DHT22;55036;52.138;5.236;2023-02-07T06:39:44;0.70;87.10
68215;DHT22;55036;52.138;5.236;2023-02-07T06:42:11;0.80;86.60
68215;DHT22;55036;52.138;5.236;2023-02-07T06:44:38;0.70;86.40
68215;DHT22;55036;52.138;5.236;2023-02-07T06:47:04;0.70;86.60
68215;DHT22;55036;52.138;5.236;2023-02-07T06:49:31;0.70;86.40
68215;DHT22;55036;52.138;5.236;2023-02-07T06:51:58;0.80;86.70
68215;DHT22;55036;52.138;5.236;2023-02-07T06:54:24;0.80;87.10
68215;DHT22;55036;52.138;5.236;2023-02-07T06:56:51;0.80;87.20
68215;DHT22;55036;52.138;5.236;2023-02-07T06:59:18;0.80;86.80
68215;DHT22;55036;52.138;5.236;2023-02-07T07:01:44;0.70;86.60
68215;DHT22;55036;52.138;5.236;2023-02-07T07:04:14;0.70;86.80
68215;DHT22;55036;52.138;5.236;2023-02-07T07:06:41;0.70;86.30
68215;DHT22;55036;52.138;5.236;2023-02-07T07:09:08;0.70;86.70
68215;DHT22;55036;52.138;5.236;2023-02-07T07:11:35;0.70;86.80
68215;DHT22;55036;52.138;5.236;2023-02-07T07:14:04;0.70;86.30
68215;DHT22;55036;52.138;5.236;2023-02-07T07:16:31;0.60;86.20
68215;DHT22;55036;52.138;5.236;2023-02-07T07:18:57;0.70;87.00
68215;DHT22;55036;52.138;5.236;2023-02-07T07:21:24;0.70;86.70
68215;DHT22;55036;52.138;5.236;2023-02-07T07:23:53;0.70;86.40
68215;DHT22;55036;52.138;5.236;2023-02-07T07:26:20;0.70;86.50
68215;DHT22;55036;52.138;5.236;2023-02-07T07:28:47;0.70;86.60
68215;DHT22;55036;52.138;5.236;2023-02-07T07:31:15;0.70;87.00
68215;DHT22;55036;52.138;5.236;2023-02-07T07:33:42;0.70;86.90
68215;DHT22;55036;52.138;5.236;2023-02-07T07:36:08;0.80;86.80
68215;DHT22;55036;52.138;5.236;2023-02-07T07:38:35;0.80;87.30
68215;DHT22;55036;52.138;5.236;2023-02-07T07:41:03;0.80;86.80
68215;DHT22;55036;52.138;5.236;2023-02-07T07:43:30;0.70;86.70
68215;DHT22;55036;52.138;5.236;2023-02-07T07:45:57;0.80;86.60
68215;DHT22;55036;52.138;5.236;2023-02-07T07:48:26;0.80;86.70
68215;DHT22;55036;52.138;5.236;2023-02-07T07:50:53;0.70;87.00
68215;DHT22;55036;52.138;5.236;2023-02-07T07:53:20;0.80;86.80
68215;DHT22;55036;52.138;5.236;2023-02-07T07:55:48;0.70;88.10
68215;DHT22;55036;52.138;5.236;2023-02-07T07:58:16;0.70;88.70
68215;DHT22;55036;52.138;5.236;2023-02-07T08:00:43;0.60;90.00
68215;DHT22;55036;52.138;5.236;2023-02-07T08:03:09;0.60;89.80
68215;DHT22;55036;52.138;5.236;2023-02-07T08:05:36;0.80;89.20
68215;DHT22;55036;52.138;5.236;2023-02-07T08:08:03;0.90;88.80
68215;DHT22;55036;52.138;5.236;2023-02-07T08:10:30;1.00;88.40
68215;DHT22;55036;52.138;5.236;2023-02-07T08:12:57;0.90;88.60
68215;DHT22;55036;52.138;5.236;2023-02-07T08:15:24;0.90;89.10
68215;DHT22;55036;52.138;5.236;2023-02-07T08:17:50;1.00;88.90
68215;DHT22;55036;52.138;5.236;2023-02-07T08:20:17;1.10;89.10
68215;DHT22;55036;52.138;5.236;2023-02-07T08:22:44;1.10;88.90
68215;DHT22;55036;52.138;5.236;2023-02-07T08:25:11;1.20;89.20
68215;DHT22;55036;52.138;5.236;2023-02-07T08:27:38;1.20;89.30
68215;DHT22;55036;52.138;5.236;2023-02-07T08:30:07;1.30;89.20
68215;DHT22;55036;52.138;5.236;2023-02-07T08:32:34;1.50;89.20
68215;DHT22;55036;52.138;5.236;2023-02-07T08:35:01;1.60;89.40
68215;DHT22;55036;52.138;5.236;2023-02-07T08:37:28;1.70;89.60
68215;DHT22;55036;52.138;5.236;2023-02-07T08:39:54;1.80;89.80
68215;DHT22;55036;52.138;5.236;2023-02-07T08:42:21;2.00;89.80
68215;DHT22;55036;52.138;5.236;2023-02-07T08:44:49;2.00;89.20
68215;DHT22;55036;52.138;5.236;2023-02-07T08:47:16;2.00;89.10
68215;DHT22;55036;52.138;5.236;2023-02-07T08:49:44;2.00;89.00
68215;DHT22;55036;52.138;5.236;2023-02-07T08:52:11;2.00;89.10
68215;DHT22;55036;52.138;5.236;2023-02-07T08:54:38;2.10;89.20
68215;DHT22;55036;52.138;5.236;2023-02-07T08:57:05;2.20;89.30
68215;DHT22;55036;52.138;5.236;2023-02-07T08:59:32;2.40;90.00
68215;DHT22;55036;52.138;5.236;2023-02-07T09:01:58;2.60;90.20
68215;DHT22;55036;52.138;5.236;2023-02-07T09:04:25;2.80;90.00
68215;DHT22;55036;52.138;5.236;2023-02-07T09:06:52;3.00;90.00
68215;DHT22;55036;52.138;5.236;2023-02-07T09:09:19;3.20;89.30
68215;DHT22;55036;52.138;5.236;2023-02-07T09:11:46;3.40;89.80
68215;DHT22;55036;52.138;5.236;2023-02-07T09:14:12;3.60;89.70
68215;DHT22;55036;52.138;5.236;2023-02-07T09:16:39;3.90;89.50
68215;DHT22;55036;52.138;5.236;2023-02-07T09:19:06;4.10;89.50
68215;DHT22;55036;52.138;5.236;2023-02-07T09:21:32;4.30;89.10
68215;DHT22;55036;52.138;5.236;2023-02-07T09:23:59;4.50;88.50
68215;DHT22;55036;52.138;5.236;2023-02-07T09:26:26;4.70;88.20
68215;DHT22;55036;52.138;5.236;2023-02-07T09:28:53;4.90;87.90
68215;DHT22;55036;52.138;5.236;2023-02-07T09:31:19;5.10;87.50
68215;DHT22;55036;52.138;5.236;2023-02-07T09:33:47;5.30;87.50
68215;DHT22;55036;52.138;5.236;2023-02-07T09:38:46;5.60;85.80
68215;DHT22;55036;52.138;5.236;2023-02-07T09:46:39;5.90;84.40
68215;DHT22;55036;52.138;5.236;2023-02-07T09:49:28;6.00;84.10
68215;DHT22;55036;52.138;5.236;2023-02-07T09:51:58;6.20;83.30
68215;DHT22;55036;52.138;5.236;2023-02-07T09:54:32;6.20;83.70
68215;DHT22;55036;52.138;5.236;2023-02-07T09:57:02;6.30;82.80
68215;DHT22;55036;52.138;5.236;2023-02-07T10:00:20;6.40;82.50
68215;DHT22;55036;52.138;5.236;2023-02-07T10:02:40;6.50;81.80
68215;DHT22;55036;52.138;5.236;2023-02-07T10:05:19;6.60;81.70
68215;DHT22;55036;52.138;5.236;2023-02-07T10:07:47;6.80;82.10
68215;DHT22;55036;52.138;5.236;2023-02-07T10:10:15;6.80;80.40
68215;DHT22;55036;52.138;5.236;2023-02-07T10:18:25;7.00;79.60
68215;DHT22;55036;52.138;5.236;2023-02-07T10:21:13;7.00;78.10
68215;DHT22;55036;52.138;5.236;2023-02-07T10:24:12;7.00;78.00
68215;DHT22;55036;52.138;5.236;2023-02-07T10:26:52;7.10;78.30
68215;DHT22;55036;52.138;5.236;2023-02-07T10:29:39;7.10;77.10
68215;DHT22;55036;52.138;5.236;2023-02-07T10:32:14;7.20;77.20
68215;DHT22;55036;52.138;5.236;2023-02-07T10:34:45;7.20;77.10
68215;DHT22;55036;52.138;5.236;2023-02-07T10:37:21;7.30;77.10
68215;DHT22;55036;52.138;5.236;2023-02-07T10:40:10;7.40;76.30
68215;DHT22;55036;52.138;5.236;2023-02-07T10:42:39;7.50;76.80
68215;DHT22;55036;52.138;5.236;2023-02-07T10:45:10;7.50;74.90
68215;DHT22;55036;52.138;5.236;2023-02-07T10:47:39;7.40;74.80
68215;DHT22;55036;52.138;5.236;2023-02-07T10:50:13;7.50;74.90
68215;DHT22;55036;52.138;5.236;2023-02-07T10:52:55;7.60;74.70
68215;DHT22;55036;52.138;5.236;2023-02-07T10:58:04;7.30;70.90
68215;DHT22;55036;52.138;5.236;2023-02-07T11:00:48;7.20;72.60
68215;DHT22;55036;52.138;5.236;2023-02-07T11:03:18;7.30;71.40
68215;DHT22;55036;52.138;5.236;2023-02-07T11:08:26;7.20;71.90
68215;DHT22;55036;52.138;5.236;2023-02-07T11:10:56;7.30;71.80
68215;DHT22;55036;52.138;5.236;2023-02-07T11:13:28;7.40;69.30
68215;DHT22;55036;52.138;5.236;2023-02-07T11:15:59;7.20;69.20
68215;DHT22;55036;52.138;5.236;2023-02-07T11:18:39;7.20;69.90
68215;DHT22;55036;52.138;5.236;2023-02-07T11:21:24;7.00;66.90
68215;DHT22;55036;52.138;5.236;2023-02-07T11:23:52;6.80;68.20
68215;DHT22;55036;52.138;5.236;2023-02-07T11:26:22;6.80;64.70
68215;DHT22;55036;52.138;5.236;2023-02-07T11:29:04;6.50;67.30
68215;DHT22;55036;52.138;5.236;2023-02-07T11:31:35;6.50;67.30
68215;DHT22;55036;52.138;5.236;2023-02-07T11:34:30;6.50;67.70
68215;DHT22;55036;52.138;5.236;2023-02-07T11:39:35;6.80;69.00
68215;DHT22;55036;52.138;5.236;2023-02-07T11:42:08;6.80;67.20
68215;DHT22;55036;52.138;5.236;2023-02-07T11:44:41;6.70;67.60
68215;DHT22;55036;52.138;5.236;2023-02-07T11:47:13;6.90;67.90
68215;DHT22;55036;52.138;5.236;2023-02-07T11:49:50;7.10;67.20
68215;DHT22;55036;52.138;5.236;2023-02-07T11:52:18;7.20;67.10
68215;DHT22;55036;52.138;5.236;2023-02-07T11:54:51;7.20;65.40
68215;DHT22;55036;52.138;5.236;2023-02-07T11:57:21;7.10;66.70
68215;DHT22;55036;52.138;5.236;2023-02-07T12:00:37;7.20;64.90
68215;DHT22;55036;52.138;5.236;2023-02-07T12:02:49;7.20;65.90
68215;DHT22;55036;52.138;5.236;2023-02-07T12:05:22;7.10;65.60
68215;DHT22;55036;52.138;5.236;2023-02-07T12:07:53;7.20;66.90
68215;DHT22;55036;52.138;5.236;2023-02-07T12:10:34;7.30;67.20
68215;DHT22;55036;52.138;5.236;2023-02-07T12:13:14;7.20;63.60
68215;DHT22;55036;52.138;5.236;2023-02-07T12:15:51;7.10;64.10
68215;DHT22;55036;52.138;5.236;2023-02-07T12:18:35;7.10;65.10
68215;DHT22;55036;52.138;5.236;2023-02-07T12:21:12;7.20;65.50
68215;DHT22;55036;52.138;5.236;2023-02-07T12:24:10;7.10;64.40
68215;DHT22;55036;52.138;5.236;2023-02-07T12:26:42;7.20;65.30
68215;DHT22;55036;52.138;5.236;2023-02-07T12:29:29;7.30;65.00
68215;DHT22;55036;52.138;5.236;2023-02-07T12:32:13;7.20;64.70
68215;DHT22;55036;52.138;5.236;2023-02-07T12:34:47;7.40;64.30
68215;DHT22;55036;52.138;5.236;2023-02-07T12:37:38;7.30;62.70
68215;DHT22;55036;52.138;5.236;2023-02-07T12:40:20;7.10;62.90
68215;DHT22;55036;52.138;5.236;2023-02-07T12:51:23;7.50;64.70
68215;DHT22;55036;52.138;5.236;2023-02-07T12:54:16;7.60;65.30
68215;DHT22;55036;52.138;5.236;2023-02-07T13:02:25;7.40;62.00
68215;DHT22;55036;52.138;5.236;2023-02-07T13:10:24;7.10;61.40
68215;DHT22;55036;52.138;5.236;2023-02-07T13:13:10;7.20;62.80
68215;DHT22;55036;52.138;5.236;2023-02-07T13:15:59;7.30;62.20
68215;DHT22;55036;52.138;5.236;2023-02-07T13:18:47;7.40;62.20
68215;DHT22;55036;52.138;5.236;2023-02-07T13:23:58;7.50;61.60
68215;DHT22;55036;52.138;5.236;2023-02-07T13:26:26;7.60;60.50
68215;DHT22;55036;52.138;5.236;2023-02-07T13:28:54;7.50;60.10
68215;DHT22;55036;52.138;5.236;2023-02-07T13:34:14;7.40;60.60
68215;DHT22;55036;52.138;5.236;2023-02-07T13:45:33;7.70;61.20
68215;DHT22;55036;52.138;5.236;2023-02-07T13:53:24;7.50;57.80
68215;DHT22;55036;52.138;5.236;2023-02-07T13:56:00;7.30;57.10
68215;DHT22;55036;52.138;5.236;2023-02-07T14:01:35;7.20;57.70
68215;DHT22;55036;52.138;5.236;2023-02-07T14:04:08;7.30;56.70
68215;DHT22;55036;52.138;5.236;2023-02-07T14:06:38;7.30;59.20
68215;DHT22;55036;52.138;5.236;2023-02-07T14:09:26;7.50;58.70
68215;DHT22;55036;52.138;5.236;2023-02-07T14:12:20;7.60;58.50
68215;DHT22;55036;52.138;5.236;2023-02-07T14:14:47;7.60;59.20
68215;DHT22;55036;52.138;5.236;2023-02-07T14:19:58;7.60;58.10
68215;DHT22;55036;52.138;5.236;2023-02-07T14:27:36;7.60;58.10
68215;DHT22;55036;52.138;5.236;2023-02-07T14:30:20;7.60;55.70
68215;DHT22;55036;52.138;5.236;2023-02-07T14:38:36;7.30;54.90
68215;DHT22;55036;52.138;5.236;2023-02-07T14:41:06;7.00;56.30
68215;DHT22;55036;52.138;5.236;2023-02-07T14:46:15;7.30;57.10
68215;DHT22;55036;52.138;5.236;2023-02-07T14:51:23;7.50;58.20
68215;DHT22;55036;52.138;5.236;2023-02-07T14:54:13;7.50;56.10
68215;DHT22;55036;52.138;5.236;2023-02-07T14:56:46;7.40;57.90
68215;DHT22;55036;52.138;5.236;2023-02-07T14:59:24;7.40;57.40
68215;DHT22;55036;52.138;5.236;2023-02-07T15:01:53;7.40;56.80
68215;DHT22;55036;52.138;5.236;2023-02-07T15:04:19;7.30;57.00
68215;DHT22;55036;52.138;5.236;2023-02-07T15:06:46;7.30;55.60
68215;DHT22;55036;52.138;5.236;2023-02-07T15:11:45;7.40;57.80
68215;DHT22;55036;52.138;5.236;2023-02-07T15:14:30;7.30;56.00
68215;DHT22;55036;52.138;5.236;2023-02-07T15:16:58;7.30;57.10
68215;DHT22;55036;52.138;5.236;2023-02-07T15:19:35;7.40;57.70
68215;DHT22;55036;52.138;5.236;2023-02-07T15:22:03;7.40;57.60
68215;DHT22;55036;52.138;5.236;2023-02-07T15:24:46;7.40;58.20
68215;DHT22;55036;52.138;5.236;2023-02-07T15:27:23;7.50;57.90
68215;DHT22;55036;52.138;5.236;2023-02-07T15:29:59;7.50;57.90
68215;DHT22;55036;52.138;5.236;2023-02-07T15:32:26;7.40;57.10
68215;DHT22;55036;52.138;5.236;2023-02-07T15:35:20;7.20;56.40
68215;DHT22;55036;52.138;5.236;2023-02-07T15:37:48;7.10;57.00
68215;DHT22;55036;52.138;5.236;2023-02-07T15:40:17;7.10;58.20
68215;DHT22;55036;52.138;5.236;2023-02-07T15:42:55;7.10;57.90
68215;DHT22;55036;52.138;5.236;2023-02-07T15:45:28;7.10;58.40
68215;DHT22;55036;52.138;5.236;2023-02-07T15:48:05;7.00;58.30
68215;DHT22;55036;52.138;5.236;2023-02-07T15:50:36;6.90;58.40
68215;DHT22;55036;52.138;5.236;2023-02-07T15:53:05;7.00;59.30
68215;DHT22;55036;52.138;5.236;2023-02-07T15:55:45;7.00;59.30
68215;DHT22;55036;52.138;5.236;2023-02-07T15:58:25;7.00;59.50
68215;DHT22;55036;52.138;5.236;2023-02-07T16:00:52;7.00;59.10
68215;DHT22;55036;52.138;5.236;2023-02-07T16:03:29;6.70;59.30
68215;DHT22;55036;52.138;5.236;2023-02-07T16:08:43;6.40;60.10
68215;DHT22;55036;52.138;5.236;2023-02-07T16:16:34;6.40;60.30
68215;DHT22;55036;52.138;5.236;2023-02-07T16:19:22;6.40;60.40
68215;DHT22;55036;52.138;5.236;2023-02-07T16:22:11;6.40;60.50
68215;DHT22;55036;52.138;5.236;2023-02-07T16:24:40;6.40;61.00
68215;DHT22;55036;52.138;5.236;2023-02-07T16:27:20;6.40;61.20
68215;DHT22;55036;52.138;5.236;2023-02-07T16:29:49;6.40;60.90
68215;DHT22;55036;52.138;5.236;2023-02-07T16:32:16;6.30;61.90
68215;DHT22;55036;52.138;5.236;2023-02-07T16:34:43;6.30;61.80
68215;DHT22;55036;52.138;5.236;2023-02-07T16:37:26;6.30;61.70
68215;DHT22;55036;52.138;5.236;2023-02-07T16:39:54;6.20;61.90
68215;DHT22;55036;52.138;5.236;2023-02-07T16:42:21;6.00;62.10
68215;DHT22;55036;52.138;5.236;2023-02-07T16:44:48;5.90;62.40
68215;DHT22;55036;52.138;5.236;2023-02-07T16:47:16;5.80;62.70
68215;DHT22;55036;52.138;5.236;2023-02-07T16:49:44;5.70;62.90
68215;DHT22;55036;52.138;5.236;2023-02-07T16:52:11;5.60;63.20
68215;DHT22;55036;52.138;5.236;2023-02-07T16:54:37;5.50;63.50
68215;DHT22;55036;52.138;5.236;2023-02-07T16:57:04;5.40;63.90
68215;DHT22;55036;52.138;5.236;2023-02-07T16:59:31;5.30;64.20
68215;DHT22;55036;52.138;5.236;2023-02-07T17:01:58;5.20;65.20
68215;DHT22;55036;52.138;5.236;2023-02-07T17:04:25;5.10;64.70
68215;DHT22;55036;52.138;5.236;2023-02-07T17:06:51;5.00;65.00
68215;DHT22;55036;52.138;5.236;2023-02-07T17:09:23;4.90;65.20
68215;DHT22;55036;52.138;5.236;2023-02-07T17:11:52;4.90;65.70
68215;DHT22;55036;52.138;5.236;2023-02-07T17:14:19;4.80;66.40
68215;DHT22;55036;52.138;5.236;2023-02-07T17:16:46;4.70;66.60
68215;DHT22;55036;52.138;5.236;2023-02-07T17:19:16;4.60;66.80
68215;DHT22;55036;52.138;5.236;2023-02-07T17:21:44;4.50;67.00
68215;DHT22;55036;52.138;5.236;2023-02-07T17:24:12;4.50;67.30
68215;DHT22;55036;52.138;5.236;2023-02-07T17:26:40;4.40;68.20
68215;DHT22;55036;52.138;5.236;2023-02-07T17:29:11;4.30;67.60
68215;DHT22;55036;52.138;5.236;2023-02-07T17:31:39;4.30;67.70
68215;DHT22;55036;52.138;5.236;2023-02-07T17:34:06;4.20;67.80
68215;DHT22;55036;52.138;5.236;2023-02-07T17:36:33;4.10;68.00
68215;DHT22;55036;52.138;5.236;2023-02-07T17:39:00;4.10;68.20
68215;DHT22;55036;52.138;5.236;2023-02-07T17:41:27;4.00;68.30
68215;DHT22;55036;52.138;5.236;2023-02-07T17:43:53;4.00;68.60
68215;DHT22;55036;52.138;5.236;2023-02-07T17:46:23;3.90;68.80
68215;DHT22;55036;52.138;5.236;2023-02-07T17:48:51;3.90;69.50
68215;DHT22;55036;52.138;5.236;2023-02-07T17:51:20;3.80;69.20
68215;DHT22;55036;52.138;5.236;2023-02-07T17:53:48;3.80;69.30
68215;DHT22;55036;52.138;5.236;2023-02-07T17:56:27;3.70;69.50
68215;DHT22;55036;52.138;5.236;2023-02-07T17:58:58;3.60;69.80
68215;DHT22;55036;52.138;5.236;2023-02-07T18:01:25;3.50;69.90
68215;DHT22;55036;52.138;5.236;2023-02-07T18:03:53;3.50;70.30
68215;DHT22;55036;52.138;5.236;2023-02-07T18:06:23;3.40;70.30
68215;DHT22;55036;52.138;5.236;2023-02-07T18:08:50;3.40;70.30
68215;DHT22;55036;52.138;5.236;2023-02-07T18:11:17;3.40;70.30